Latest Weather Observations for Oenpelli Airport

IDD60801

Issued at 4:05 pm CST Wednesday 1 October 2014 (issued every 30 minutes, with the page automatically refreshed every 10 minutes)

About weather observations | Map of weather stations | Latest weather observations for NT | Other Formats
Station Details ID: 014310 Name: OENPELLI AIRPORT Lat: -12.33 Lon: 133.01 Height: 7.5 m
Data from the previous 72 hours. | See also: Recent months for locations in Northern Territory
Date/Time
CST
Temp
°C
App
Temp
°C
Dew
Point
Rel
Hum
%
Delta-T
°C
Wind Press
QNH
hPa
Press
MSL
hPa
Rain
since 9 am
mm
Dir
 
Spd
km/h
Gust
km/h
Spd
kts
Gust
kts
01/04:00pm 35.6 33.0 7.6 18 15.7 ESE 11 20 6 11 1008.6 1008.5 0.0
01/03:30pm 35.9 32.9 7.9 18 15.8 ESE 13 24 7 13 1008.8 1008.7 0.0
01/03:00pm 35.8 32.3 8.6 19 15.5 SE 17 24 9 13 1009.1 1009.0 0.0
01/02:30pm 36.0 33.1 10.9 22 14.8 E 17 24 9 13 1009.6 1009.5 0.0
01/02:00pm 35.6 33.9 11.3 23 14.4 E 11 26 6 14 1010.2 1010.1 0.0
01/01:30pm 34.4 32.2 10.9 24 13.8 E 13 28 7 15 1010.8 1010.7 0.0
01/01:00pm 34.4 32.2 12.1 26 13.3 E 15 26 8 14 1011.4 1011.3 0.0
01/12:30pm 33.8 30.7 12.2 27 12.9 E 20 37 11 20 1012.2 1012.1 0.0
01/12:00pm 33.5 31.4 12.5 28 12.5 E 15 28 8 15 1013.0 1012.9 0.0
01/11:30am 32.6 30.2 12.8 30 11.8 NE 17 30 9 16 1013.6 1013.5 0.0
01/11:00am 32.7 30.0 12.9 30 11.8 E 19 30 10 16 1014.0 1013.9 0.0
01/10:30am 31.0 28.1 12.8 32 10.8 NE 20 30 11 16 1014.5 1014.4 0.0
01/10:00am 30.6 27.9 13.0 34 10.5 ENE 19 30 10 16 1014.6 1014.5 0.0
01/09:30am 29.6 27.2 13.8 38 9.5 ENE 19 26 10 14 1014.7 1014.6 0.0
01/09:00am 29.1 27.8 14.9 42 8.6 ENE 15 26 8 14 1014.6 1014.5 0.0
01/08:30am 27.0 29.3 17.8 57 5.8 SSE 2 7 1 4 1014.6 1014.5 0.0
01/08:00am 25.0 27.2 19.1 70 3.8 SSW 6 9 3 5 1014.5 1014.4 0.0
01/07:30am 24.4 27.3 19.0 72 3.4 ESE 2 4 1 2 1013.9 1013.8 0.0
01/07:00am 22.1 25.1 19.3 84 1.8 NE 2 6 1 3 1013.6 1013.5 0.0
01/06:30am 20.7 23.0 18.6 88 1.3 ENE 4 4 2 2 1013.0 1012.9 0.0
01/06:00am 20.9 22.8 19.0 89 1.2 NE 7 9 4 5 1012.5 1012.4 0.0
01/05:30am 20.4 22.9 19.1 92 0.8 ENE 4 6 2 3 1012.4 1012.3 0.0
01/05:00am 19.4 21.7 17.7 90 1.0 SSE 2 4 1 2 1012.3 1012.2 0.0
01/04:30am 19.8 21.5 17.2 85 1.6 NNE 4 6 2 3 1012.1 1012.0 0.0
01/04:00am 20.7 23.1 17.1 80 2.2 CALM 0 0 0 0 1012.1 1012.0 0.0
01/03:30am 22.0 24.3 19.5 86 1.6 N 6 7 3 4 1012.1 1012.0 0.0
01/03:00am 21.3 24.3 18.5 84 1.8 CALM 0 0 0 0 1012.1 1012.0 0.0
01/02:30am 21.3 24.2 18.1 82 2.0 CALM 0 0 0 0 1012.4 1012.3 0.0
01/02:00am 21.8 24.6 18.0 79 2.4 CALM 0 0 0 0 1012.5 1012.4 0.0
01/01:30am 24.0 27.0 19.3 75 3.0 N 2 4 1 2 1012.8 1012.7 0.0
01/01:00am 24.8 27.6 19.6 73 3.3 ENE 4 6 2 3 1013.1 1013.0 0.0
01/12:30am 25.1 27.3 19.7 72 3.5 NE 7 13 4 7 1013.4 1013.3 0.0
01/12:00am 25.5 27.1 19.9 71 3.6 ENE 11 15 6 8 1013.5 1013.4 0.0
 
Date/Time
CST
Temp
°C
App
Temp
°C
Dew
Point
Rel
Hum
%
Delta-T
°C
Wind Press
QNH
hPa
Press
MSL
hPa
Rain
since 9 am
mm
Dir
 
Spd
km/h
Gust
km/h
Spd
kts
Gust
kts
30/11:30pm 25.4 26.6 19.8 71 3.6 ENE 13 19 7 10 1013.7 1013.6 0.0
30/11:00pm 25.7 26.1 19.8 70 3.8 ENE 17 24 9 13 1013.5 1013.4 0.0
30/10:30pm 25.6 26.8 19.9 70 3.7 ENE 13 17 7 9 1013.5 1013.4 0.0
30/10:00pm 26.1 26.6 20.0 69 4.0 NE 17 22 9 12 1013.4 1013.3 0.0
30/09:30pm 26.4 27.3 20.0 68 4.2 NE 15 22 8 12 1013.1 1013.0 0.0
30/09:00pm 26.3 27.8 19.7 67 4.3 NE 11 19 6 10 1012.7 1012.6 0.0
30/08:30pm 26.6 27.6 19.5 65 4.6 NNE 13 17 7 9 1012.2 1012.1 0.0
30/08:00pm 27.2 28.7 19.0 61 5.3 NNE 9 19 5 10 1011.8 1011.7 0.0
30/07:30pm 27.5 28.7 19.0 59 5.5 NNE 11 19 6 10 1011.4 1011.3 0.0
30/07:00pm 28.2 29.3 18.9 57 6.0 NNE 11 17 6 9 1010.8 1010.7 0.0
30/06:30pm 29.1 29.7 18.5 52 6.8 NNE 13 20 7 11 1010.3 1010.2 0.0
30/06:00pm 30.1 29.5 18.5 49 7.5 NNE 19 26 10 14 1009.9 1009.8 0.0
30/05:30pm 31.1 30.2 18.1 46 8.4 NNE 20 30 11 16 1009.5 1009.4 0.0
30/05:00pm 31.9 31.1 18.5 45 8.7 NNE 20 33 11 18 1009.3 1009.2 0.0
30/04:30pm 33.3 32.1 18.3 41 9.7 N 22 33 12 18 1009.1 1009.0 0.0
30/04:00pm 35.8 33.8 11.4 23 14.5 E 13 24 7 13 1009.1 1009.0 0.0
30/03:30pm 35.5 33.8 11.2 23 14.4 E 11 24 6 13 1009.2 1009.1 0.0
30/03:00pm 35.8 33.8 11.4 23 14.5 E 13 24 7 13 1009.6 1009.5 0.0
30/02:30pm 34.4 32.2 12.1 26 13.3 E 15 30 8 16 1010.0 1009.9 0.0
30/02:00pm 34.2 32.5 13.6 29 12.5 E 15 22 8 12 1010.4 1010.3 0.0
30/01:30pm 34.4 32.8 13.8 29 12.6 ENE 15 26 8 14 1010.9 1010.8 0.0
30/01:00pm 33.2 32.5 14.3 32 11.6 E 11 24 6 13 1011.5 1011.4 0.0
30/12:30pm 32.8 32.1 15.3 34 10.9 NE 13 26 7 14 1012.3 1012.2 0.0
30/12:00pm 32.8 31.3 15.3 34 10.9 E 17 32 9 17 1013.1 1013.0 0.0
30/11:30am 32.7 32.4 16.5 37 10.2 E 13 22 7 12 1013.7 1013.6 0.0
30/11:00am 31.9 30.6 15.8 38 10.0 E 17 26 9 14 1014.2 1014.1 0.0
30/10:30am 31.3 30.3 15.7 39 9.7 E 15 26 8 14 1014.5 1014.4 0.0
30/10:00am 30.0 29.7 16.4 44 8.5 ENE 13 20 7 11 1014.9 1014.8 0.0
30/09:30am 30.4 30.4 17.1 44 8.4 E 13 22 7 12 1015.1 1015.0 0.0
30/09:00am 29.2 29.7 18.3 51 7.0 E 13 19 7 10 1015.0 1014.9 0.0
30/08:30am 28.0 29.3 18.4 56 6.1 E 9 15 5 8 1015.1 1015.0 0.0
30/08:00am 27.1 28.7 20.0 65 4.6 E 11 17 6 9 1014.9 1014.8 0.0
30/07:30am 25.4 27.6 20.4 74 3.3 NE 9 11 5 6 1014.3 1014.2 0.0
30/07:00am 23.7 26.9 20.6 83 2.0 NE 4 7 2 4 1014.2 1014.1 0.0
30/06:30am 22.2 25.9 19.9 87 1.5 CALM 0 4 0 2 1013.9 1013.8 0.0
30/06:00am 22.5 26.3 20.2 87 1.5 CALM 0 0 0 0 1013.6 1013.5 0.0
30/05:30am 22.6 26.5 20.3 87 1.5 CALM 0 0 0 0 1013.4 1013.3 0.0
30/05:00am 22.2 25.8 19.7 86 1.6 CALM 0 0 0 0 1013.1 1013.0 0.0
30/04:30am 22.6 26.2 19.8 84 1.8 CALM 0 0 0 0 1012.8 1012.7 0.0
30/04:00am 22.5 26.1 19.7 84 1.8 CALM 0 0 0 0 1012.7 1012.6 0.0
30/03:30am 22.4 25.7 19.0 81 2.2 CALM 0 4 0 2 1012.5 1012.4 0.0
30/03:00am 23.2 26.9 20.0 82 2.1 CALM 0 0 0 0 1012.5 1012.4 0.0
30/02:30am 23.6 27.4 20.1 81 2.3 CALM 0 0 0 0 1012.3 1012.2 0.0
30/02:00am 23.6 27.3 19.9 80 2.4 CALM 0 0 0 0 1012.2 1012.1 0.0
30/01:30am 24.1 27.8 20.0 78 2.7 CALM 0 0 0 0 1012.5 1012.4 0.0
30/01:00am 24.8 28.9 20.7 78 2.7 CALM 0 0 0 0 1012.8 1012.7 0.0
30/12:30am 25.0 29.0 20.5 76 2.9 CALM 0 0 0 0 1013.0 1012.9 0.0
30/12:00am 25.1 28.0 20.6 76 2.9 NE 6 7 3 4 1013.1 1013.0 0.0
 
Date/Time
CST
Temp
°C
App
Temp
°C
Dew
Point
Rel
Hum
%
Delta-T
°C
Wind Press
QNH
hPa
Press
MSL
hPa
Rain
since 9 am
mm
Dir
 
Spd
km/h
Gust
km/h
Spd
kts
Gust
kts
29/11:30pm 25.4 28.1 20.6 75 3.1 NE 7 11 4 6 1013.1 1013.0 0.0
29/11:00pm 25.6 28.3 20.6 74 3.3 NE 7 11 4 6 1013.3 1013.2 0.0
29/10:30pm 26.0 27.6 20.8 73 3.4 NE 13 17 7 9 1013.1 1013.0 0.0
29/10:00pm 26.2 28.2 20.8 72 3.6 NNE 11 15 6 8 1013.0 1012.9 0.0
29/09:30pm 26.7 28.2 19.8 66 4.5 N 11 19 6 10 1012.7 1012.6 0.0
29/09:00pm 27.3 28.0 18.9 60 5.4 NNE 13 19 7 10 1012.1 1012.0 0.0
29/08:30pm 27.9 28.9 17.7 53 6.5 NNE 9 11 5 6 1011.5 1011.4 0.0
29/08:00pm 28.0 28.6 16.9 51 6.9 NNE 9 15 5 8 1011.0 1010.9 0.0
29/07:30pm 28.8 28.1 16.4 47 7.7 NE 15 20 8 11 1010.4 1010.3 0.0
29/07:00pm 29.8 29.4 16.2 43 8.5 NNE 13 20 7 11 1010.2 1010.1 0.0
29/06:30pm 30.2 30.3 16.6 44 8.5 NNE 11 17 6 9 1009.9 1009.8 0.0
29/06:00pm 31.6 30.8 17.1 41 9.2 NNE 17 26 9 14 1009.5 1009.4 0.0
29/05:30pm 32.9 31.9 16.7 38 10.3 NE 17 24 9 13 1009.1 1009.0 0.0
29/05:00pm 33.6 33.1 16.0 34 11.1 NNE 13 19 7 10 1008.8 1008.7 0.0
29/04:30pm 34.5 33.6 15.9 33 11.7 N 15 22 8 12 1008.6 1008.5 0.0
29/04:00pm 34.0 33.0 15.5 33 11.6 NNE 15 20 8 11 1008.7 1008.6 0.0
29/03:30pm 36.0 34.2 10.9 22 14.8 NNE 11 22 6 12 1008.7 1008.6 0.0
29/03:00pm 35.1 32.2 10.9 23 14.2 NE 17 24 9 13 1009.1 1009.0 0.0
29/02:30pm 35.4 34.1 11.1 23 14.3 ENE 9 22 5 12 1009.5 1009.4 0.0
29/02:00pm 35.2 32.7 10.9 23 14.3 ESE 15 24 8 13 1010.0 1009.9 0.0
29/01:30pm 34.4 33.9 12.7 27 13.0 NNE 7 13 4 7 1010.5 1010.4 0.0
29/01:00pm 34.2 32.5 12.5 27 13.0 ENE 13 22 7 12 1011.1 1011.0 0.0
29/12:30pm 33.0 31.7 13.6 31 11.8 NE 13 24 7 13 1011.8 1011.7 0.0
29/12:00pm 32.5 32.5 15.1 35 10.8 NE 9 19 5 10 1012.6 1012.5 0.0
29/11:30am 31.9 31.7 15.8 38 10.0 NE 11 17 6 9 1013.1 1013.0 0.0
29/11:00am 31.2 31.5 17.1 42 8.9 N 11 19 6 10 1013.6 1013.5 0.0
29/10:30am 30.1 32.0 18.5 49 7.5 NNE 6 15 3 8 1014.0 1013.9 0.0
29/10:00am 28.8 30.2 18.6 54 6.6 N 9 19 5 10 1014.2 1014.1 0.0
29/09:30am 28.5 30.7 19.7 59 5.7 NNE 7 13 4 7 1014.3 1014.2 0.0
29/09:00am 27.8 30.5 20.6 65 4.7 NE 7 13 4 7 1014.4 1014.3 0.0
29/08:30am 26.9 30.1 20.5 68 4.2 N 4 9 2 5 1014.3 1014.2 0.0
29/08:00am 25.5 29.2 19.9 71 3.6 CALM 0 0 0 0 1014.2 1014.1 0.0
29/07:30am 23.8 27.2 19.3 76 2.9 CALM 0 2 0 1 1013.8 1013.7 0.0
29/07:00am 21.6 24.4 18.0 80 2.2 CALM 0 0 0 0 1013.4 1013.3 0.0
29/06:30am 20.6 23.2 17.4 82 2.0 CALM 0 0 0 0 1012.9 1012.8 0.0
29/06:00am 20.5 23.3 17.9 85 1.6 CALM 0 0 0 0 1012.5 1012.4 0.0
29/05:30am 19.8 21.7 16.8 83 1.8 N 2 4 1 2 1012.3 1012.2 0.0
29/05:00am 21.1 23.7 17.5 80 2.2 CALM 0 4 0 2 1012.0 1011.9 0.0
29/04:30am 21.1 23.7 17.5 80 2.2 CALM 0 0 0 0 1011.6 1011.5 0.0
29/04:00am 21.0 23.6 17.6 81 2.1 CALM 0 0 0 0 1011.6 1011.5 0.0
29/03:30am 21.6 24.5 18.2 81 2.1 CALM 0 0 0 0 1011.5 1011.4 0.0
29/03:00am 20.9 23.5 17.5 81 2.1 CALM 0 0 0 0 1011.6 1011.5 0.0
29/02:30am 21.2 23.7 17.2 78 2.5 CALM 0 0 0 0 1011.7 1011.6 0.0
29/02:00am 21.3 23.8 17.3 78 2.5 CALM 0 2 0 1 1011.9 1011.8 0.0
29/01:30am 20.6 21.9 15.2 71 3.2 N 2 6 1 3 1012.3 1012.2 0.0
29/01:00am 23.9 25.8 17.6 68 3.9 N 4 4 2 2 1012.2 1012.1 0.0
29/12:30am 24.6 26.8 18.3 68 4.0 NNE 4 4 2 2 1012.5 1012.4 0.0
29/12:00am 24.4 26.5 18.1 68 4.0 NE 4 6 2 3 1012.7 1012.6 0.0
 
Date/Time
CST
Temp
°C
App
Temp
°C
Dew
Point
Rel
Hum
%
Delta-T
°C
Wind Press
QNH
hPa
Press
MSL
hPa
Rain
since 9 am
mm
Dir
 
Spd
km/h
Gust
km/h
Spd
kts
Gust
kts
28/11:30pm 23.9 26.0 17.2 66 4.1 NE 2 4 1 2 1012.8 1012.7 0.0
28/11:00pm 24.8 26.3 17.5 64 4.6 NE 6 7 3 4 1012.9 1012.8 0.0
28/10:30pm 25.0 26.1 17.2 62 4.8 NE 7 11 4 6 1012.9 1012.8 0.0
28/10:00pm 25.7 26.9 16.8 58 5.5 NE 6 7 3 4 1012.4 1012.3 0.0
28/09:30pm 26.3 27.4 16.5 54 6.1 NNE 6 9 3 5 1012.0 1011.9 0.0
28/09:00pm 26.8 27.9 17.0 55 6.1 NNE 7 11 4 6 1011.7 1011.6 0.0
28/08:30pm 27.6 28.4 17.2 53 6.5 N 9 15 5 8 1011.1 1011.0 0.0
28/08:00pm 28.4 28.4 17.3 51 7.0 NNE 13 17 7 9 1010.7 1010.6 0.0
28/07:30pm 29.0 28.7 16.5 46 7.8 N 13 19 7 10 1010.2 1010.1 0.0
28/07:00pm 29.6 28.9 16.4 45 8.2 NNE 15 20 8 11 1009.8 1009.7 0.0
28/06:30pm 30.7 29.7 15.5 39 9.4 N 15 20 8 11 1009.5 1009.4 0.0
28/06:00pm 32.0 29.9 14.6 34 10.7 NE 19 24 10 13 1009.1 1009.0 0.0
28/05:30pm 33.6 31.9 14.6 31 11.7 NNE 17 26 9 14 1008.7 1008.6 0.0
28/05:00pm 34.8 31.8 13.6 28 12.9 NE 22 33 12 18 1008.3 1008.2 0.0
28/04:30pm 38.5 35.0 -1.6 8 19.8 SSE 7 15 4 8 1007.9 1007.8 0.0

Other Formats:

Comma delimited format used in spreadsheet applications
http://www.bom.gov.au/fwo/IDD60801/IDD60801.94110.axf

JavaScript Object Notation format (JSON) in row-major order
http://www.bom.gov.au/fwo/IDD60801/IDD60801.94110.json